Time;durP1;ratioP1;P1;durP2;ratioP2;P2;SDS_P1;SDS_P2;PMS_P1;PMS_P2;Temp;Humidity;BMP_temperature;BMP_pressure;BME280_temperature;BME280_humidity;BME280_pressure;Samples;Min_cycle;Max_cycle;Signal;HPM_P1;HPM_P2
2022/10/10 00:01:33;;;;;;;11.40;4.90;;;;;;;8.33;80.30;102123.75;105498;1274;58925;-77
2022/10/10 00:04:01;;;;;;;6.80;4.90;;;;;;;8.34;80.49;102124.25;105425;1263;60442;-76
2022/10/10 00:06:29;;;;;;;7.80;4.50;;;;;;;8.35;80.50;102125.27;105412;1266;73473;-75
2022/10/10 00:09:02;;;;;;;7.80;4.80;;;;;;;8.34;80.47;102125.83;105425;1268;71748;-75
2022/10/10 00:11:30;;;;;;;8.60;5.00;;;;;;;8.30;80.27;102125.11;105506;1266;70178;-76
2022/10/10 00:13:58;;;;;;;6.90;4.70;;;;;;;8.26;80.26;102125.11;105414;1274;64831;-75
2022/10/10 00:16:26;;;;;;;7.80;4.70;;;;;;;8.19;80.39;102124.50;105400;1267;59132;-76
2022/10/10 00:18:53;;;;;;;6.90;4.50;;;;;;;8.14;80.39;102125.58;105492;1263;59093;-79
2022/10/10 00:21:20;;;;;;;10.30;4.60;;;;;;;8.08;81.01;102128.09;105484;1266;64007;-76
2022/10/10 00:23:47;;;;;;;7.50;5.00;;;;;;;8.03;81.47;102125.50;105348;1266;72033;-77
2022/10/10 00:26:15;;;;;;;8.30;4.70;;;;;;;7.97;81.30;102126.08;105449;1266;70883;-77
2022/10/10 00:28:47;;;;;;;6.90;4.50;;;;;;;7.92;81.24;102128.52;105433;1270;74135;-78
2022/10/10 00:31:14;;;;;;;5.80;4.80;;;;;;;7.89;81.08;102129.68;105503;1265;59020;-77
2022/10/10 00:33:42;;;;;;;7.80;5.20;;;;;;;7.85;81.59;102128.95;105399;1266;61231;-77
2022/10/10 00:36:09;;;;;;;7.60;5.00;;;;;;;7.81;81.16;102132.93;105334;1273;73105;-78
2022/10/10 00:38:37;;;;;;;8.20;5.20;;;;;;;7.77;82.32;102137.95;105466;1263;72518;-77
2022/10/10 00:41:04;;;;;;;6.40;4.80;;;;;;;7.75;81.76;102139.96;105438;1275;68170;-79
2022/10/10 00:43:33;;;;;;;7.70;4.60;;;;;;;7.75;82.44;102139.60;105468;1267;73790;-76
2022/10/10 00:46:00;;;;;;;7.10;4.90;;;;;;;7.75;81.97;102141.14;105463;1263;59090;-75
2022/10/10 00:48:42;;;;;;;7.50;4.70;;;;;;;7.76;81.65;102141.77;105452;1263;61146;-77
2022/10/10 00:51:17;;;;;;;7.40;4.80;;;;;;;7.74;81.55;102138.22;105513;1270;73175;-78
2022/10/10 00:54:03;;;;;;;10.40;4.80;;;;;;;7.72;82.22;102135.70;105553;1262;61098;-78
2022/10/10 00:57:00;;;;;;;8.00;4.90;;;;;;;7.72;81.82;102139.00;105514;1272;71483;-76
2022/10/10 00:59:32;;;;;;;8.50;4.70;;;;;;;7.69;81.99;102135.63;105459;1272;63600;-76
2022/10/10 01:01:59;;;;;;;8.30;4.90;;;;;;;7.69;82.31;102134.77;105493;1273;58913;-78
2022/10/10 01:04:35;;;;;;;9.50;5.10;;;;;;;7.70;82.13;102132.28;105467;1270;61440;-79
2022/10/10 01:07:11;;;;;;;9.90;4.30;;;;;;;7.74;82.31;102133.02;105449;1263;63397;-78
2022/10/10 01:09:43;;;;;;;9.40;4.90;;;;;;;7.75;82.45;102130.21;105487;1274;71998;-78
2022/10/10 01:12:34;;;;;;;9.10;4.60;;;;;;;7.77;82.30;102127.71;105535;1274;59812;-78
2022/10/10 01:15:06;;;;;;;6.80;4.70;;;;;;;7.78;82.11;102126.99;105485;1274;73663;-76
2022/10/10 01:18:16;;;;;;;6.30;4.30;;;;;;;7.75;82.13;102127.80;105498;1274;57499;-76
2022/10/10 01:20:48;;;;;;;8.10;4.90;;;;;;;7.72;82.17;102128.96;105279;1274;60351;-79
2022/10/10 01:23:36;;;;;;;10.60;4.60;;;;;;;7.72;82.52;102130.89;105472;1266;62523;-76
2022/10/10 01:26:34;;;;;;;8.70;4.60;;;;;;;7.71;82.45;102131.58;105316;1272;61547;-76
2022/10/10 01:29:12;;;;;;;7.70;4.60;;;;;;;7.69;82.39;102135.11;105356;1267;59955;-74
2022/10/10 01:31:43;;;;;;;6.20;4.50;;;;;;;7.67;82.67;102140.73;105306;1270;63095;-76
2022/10/10 01:34:39;;;;;;;11.30;5.30;;;;;;;7.64;83.12;102141.19;105260;1263;62670;-75
2022/10/10 01:37:26;;;;;;;7.40;4.40;;;;;;;7.62;82.69;102142.16;105178;1266;59160;-77
2022/10/10 01:40:03;;;;;;;7.60;4.90;;;;;;;7.60;82.44;102139.29;105227;1259;74522;-79
2022/10/10 01:42:58;;;;;;;7.40;4.80;;;;;;;7.56;82.97;102140.31;105403;1270;73707;-78
2022/10/10 01:45:26;;;;;;;6.50;4.50;;;;;;;7.53;83.37;102143.88;105453;1266;69519;-77
2022/10/10 01:48:00;;;;;;;10.10;5.10;;;;;;;7.49;83.10;102147.66;105356;1269;72935;-81
2022/10/10 01:50:31;;;;;;;7.90;5.50;;;;;;;7.46;83.39;102152.63;105274;1272;63080;-81
2022/10/10 01:53:38;;;;;;;9.80;5.30;;;;;;;7.42;83.48;102152.25;105185;1273;60773;-79
2022/10/10 01:56:13;;;;;;;8.00;5.10;;;;;;;7.33;84.71;102156.02;105248;1269;73286;-76
2022/10/10 01:59:18;;;;;;;9.20;5.70;;;;;;;7.29;83.93;102157.57;105305;1271;73427;-76
2022/10/10 02:02:10;;;;;;;8.50;5.50;;;;;;;7.22;84.38;102159.58;105339;1268;60208;-74
2022/10/10 02:04:44;;;;;;;9.70;5.90;;;;;;;7.16;84.56;102158.90;105448;1275;73807;-74
2022/10/10 02:07:31;;;;;;;7.50;5.30;;;;;;;7.11;84.68;102160.27;105470;1267;59112;-74
2022/10/10 02:10:03;;;;;;;10.30;5.70;;;;;;;7.06;85.21;102162.36;105483;1274;58250;-74
2022/10/10 02:12:32;;;;;;;9.90;5.30;;;;;;;7.01;85.10;102161.12;105399;1272;62123;-74
2022/10/10 02:15:15;;;;;;;7.40;5.60;;;;;;;6.96;86.27;102167.56;105288;1266;71411;-77
2022/10/10 02:17:46;;;;;;;7.60;5.50;;;;;;;6.85;86.43;102166.38;105501;1263;59696;-77
2022/10/10 02:20:20;;;;;;;9.20;5.90;;;;;;;6.77;87.18;102171.30;105351;1263;73700;-76
2022/10/10 02:22:50;;;;;;;8.00;4.70;;;;;;;6.67;87.33;102173.54;105340;1266;61955;-78
2022/10/10 02:25:26;;;;;;;9.70;5.80;;;;;;;6.63;88.23;102175.94;105422;1267;61136;-75
2022/10/10 02:28:14;;;;;;;10.90;6.10;;;;;;;6.57;88.78;102184.23;105446;1273;62902;-74
2022/10/10 02:30:47;;;;;;;10.10;6.10;;;;;;;6.51;88.80;102176.99;105327;1269;71156;-74
2022/10/10 02:33:20;;;;;;;9.10;6.30;;;;;;;6.43;89.46;102174.83;105362;1268;60258;-75
2022/10/10 02:35:50;;;;;;;10.80;6.50;;;;;;;6.41;89.65;102178.19;105159;1272;73785;-76
2022/10/10 02:38:19;;;;;;;10.30;5.80;;;;;;;6.34;89.51;102179.60;105219;1272;59388;-76
2022/10/10 02:40:48;;;;;;;9.90;5.60;;;;;;;6.32;89.59;102186.77;105264;1268;59062;-78
2022/10/10 02:43:16;;;;;;;13.40;6.90;;;;;;;6.30;90.74;102188.22;105239;1265;62809;-74
2022/10/10 02:45:44;;;;;;;7.70;5.60;;;;;;;6.27;90.60;102185.73;105115;1263;71430;-75
2022/10/10 02:48:12;;;;;;;8.70;6.00;;;;;;;6.22;90.72;102187.45;105315;1263;70726;-75
2022/10/10 02:50:39;;;;;;;9.60;5.20;;;;;;;6.18;91.21;102186.70;105127;1269;62977;-75
2022/10/10 02:53:06;;;;;;;11.00;6.80;;;;;;;6.13;91.35;102183.39;105048;1277;58311;-74
2022/10/10 02:55:33;;;;;;;10.60;6.90;;;;;;;6.09;91.40;102186.77;105271;1267;60754;-74
2022/10/10 02:58:01;;;;;;;13.00;6.70;;;;;;;6.05;91.68;102189.49;105154;1263;73819;-74
2022/10/10 03:00:29;;;;;;;9.60;5.50;;;;;;;6.01;91.39;102191.69;105228;1267;62625;-77
2022/10/10 03:02:56;;;;;;;11.70;7.40;;;;;;;6.00;91.87;102190.87;105350;1267;59119;-74
2022/10/10 03:05:23;;;;;;;10.20;6.70;;;;;;;5.99;91.61;102199.70;105228;1267;73549;-74
2022/10/10 03:07:50;;;;;;;11.30;6.50;;;;;;;5.97;91.94;102202.02;105330;1263;62523;-77
2022/10/10 03:10:18;;;;;;;10.90;6.00;;;;;;;5.97;91.93;102204.63;105475;1259;61482;-78
2022/10/10 03:12:45;;;;;;;10.20;6.80;;;;;;;5.95;92.04;102206.39;105433;1271;63312;-76
2022/10/10 03:15:12;;;;;;;10.10;6.60;;;;;;;5.95;91.92;102212.10;105416;1273;61356;-77
2022/10/10 03:17:39;;;;;;;10.30;6.90;;;;;;;5.92;91.97;102212.88;105503;1266;70410;-78
2022/10/10 03:20:08;;;;;;;10.30;6.30;;;;;;;5.93;92.37;102211.46;105402;1269;63510;-76
2022/10/10 03:22:36;;;;;;;11.20;6.40;;;;;;;5.94;92.28;102210.92;105410;1275;62853;-77
2022/10/10 03:25:04;;;;;;;11.60;5.60;;;;;;;5.94;92.56;102212.63;105442;1275;58873;-76
2022/10/10 03:27:31;;;;;;;12.30;6.40;;;;;;;5.96;92.89;102216.59;105312;1268;62893;-77
2022/10/10 03:29:58;;;;;;;9.50;6.00;;;;;;;5.98;93.07;102215.84;105397;1267;61451;-74
2022/10/10 03:32:25;;;;;;;10.70;6.60;;;;;;;5.99;92.95;102215.80;105286;1265;62722;-74
2022/10/10 03:34:52;;;;;;;12.60;6.80;;;;;;;5.99;92.72;102216.49;105333;1266;74512;-75
2022/10/10 03:37:20;;;;;;;8.30;5.10;;;;;;;5.99;92.84;102213.35;105384;1270;61162;-73
2022/10/10 03:39:47;;;;;;;10.80;6.50;;;;;;;6.02;93.29;102213.81;105348;1265;59125;-75
2022/10/10 03:42:14;;;;;;;11.00;6.40;;;;;;;6.01;92.94;102215.91;105399;1269;73461;-79
2022/10/10 03:44:41;;;;;;;8.90;6.10;;;;;;;6.04;93.15;102216.34;105481;1270;72507;-76
2022/10/10 03:47:09;;;;;;;12.50;6.80;;;;;;;6.07;93.33;102215.40;105415;1264;61365;-73
2022/10/10 03:49:36;;;;;;;11.20;7.00;;;;;;;6.08;93.30;102219.86;105430;1273;63038;-77
2022/10/10 03:52:03;;;;;;;12.10;6.40;;;;;;;6.08;92.89;102216.91;105403;1273;58905;-77
2022/10/10 03:54:30;;;;;;;10.90;6.90;;;;;;;6.08;92.79;102220.56;105462;1274;58500;-75
2022/10/10 03:56:57;;;;;;;15.10;7.00;;;;;;;6.06;92.88;102220.95;105448;1268;63432;-74
2022/10/10 03:59:24;;;;;;;10.80;7.30;;;;;;;6.05;92.80;102211.48;105446;1272;71403;-75
2022/10/10 04:01:52;;;;;;;10.30;7.50;;;;;;;6.06;92.96;102210.73;105497;1266;69959;-74
2022/10/10 04:04:19;;;;;;;12.90;7.30;;;;;;;6.07;92.85;102214.35;105467;1272;62798;-76
2022/10/10 04:06:46;;;;;;;12.80;6.90;;;;;;;6.08;92.63;102218.28;105406;1267;61227;-76
2022/10/10 04:09:14;;;;;;;11.80;6.90;;;;;;;6.08;92.66;102221.42;105522;1266;58720;-74
2022/10/10 04:11:42;;;;;;;10.40;7.30;;;;;;;6.08;92.80;102227.63;105511;1273;62110;-76
2022/10/10 04:14:10;;;;;;;11.20;6.90;;;;;;;6.10;92.74;102230.88;105583;1263;60895;-77
2022/10/10 04:16:37;;;;;;;15.70;7.90;;;;;;;6.11;92.76;102235.84;105668;1266;59360;-76
2022/10/10 04:19:04;;;;;;;11.40;7.30;;;;;;;6.10;92.51;102234.30;107015;1271;63323;-77
2022/10/10 04:21:33;;;;;;;12.70;8.00;;;;;;;6.08;92.45;102234.39;106950;1263;62053;-80
2022/10/10 04:24:00;;;;;;;13.10;6.90;;;;;;;6.08;92.84;102238.70;105866;1270;57565;-77
2022/10/10 04:26:27;;;;;;;14.60;6.90;;;;;;;6.08;92.87;102245.45;105485;1274;62162;-77
2022/10/10 04:28:54;;;;;;;13.70;7.50;;;;;;;6.06;92.48;102250.19;105531;1266;71312;-81
2022/10/10 04:31:22;;;;;;;11.80;5.90;;;;;;;6.06;92.53;102251.73;105531;1263;71049;-74
2022/10/10 04:33:51;;;;;;;10.10;6.00;;;;;;;6.07;92.58;102257.58;105503;1261;73617;-77
2022/10/10 04:36:18;;;;;;;12.50;6.60;;;;;;;6.04;92.50;102260.95;105459;1273;60887;-83
2022/10/10 04:38:46;;;;;;;10.40;6.10;;;;;;;6.01;92.79;102264.33;105583;1263;58452;-85
2022/10/10 04:41:13;;;;;;;14.50;7.10;;;;;;;6.01;92.78;102267.80;105684;1266;73656;-87
2022/10/10 04:43:41;;;;;;;9.90;5.90;;;;;;;5.98;92.97;102267.20;105683;1269;71248;-86
2022/10/10 04:46:08;;;;;;;9.70;7.00;;;;;;;6.00;92.80;102267.98;105666;1263;60514;-86
2022/10/10 04:48:36;;;;;;;12.10;7.90;;;;;;;6.01;92.52;102266.74;105593;1261;64190;-85
2022/10/10 04:51:03;;;;;;;15.50;7.80;;;;;;;6.01;92.63;102266.93;105675;1274;57632;-82
2022/10/10 04:53:30;;;;;;;10.00;6.50;;;;;;;6.03;92.53;102269.81;105751;1261;61100;-86
2022/10/10 04:55:58;;;;;;;9.70;5.80;;;;;;;6.07;92.04;102267.10;105579;1266;62685;-85
2022/10/10 04:58:25;;;;;;;12.00;7.30;;;;;;;6.09;92.29;102265.48;105524;1274;61432;-85
2022/10/10 05:00:54;;;;;;;10.60;6.40;;;;;;;6.07;92.46;102268.48;105527;1259;60929;-85
2022/10/10 05:03:23;;;;;;;14.90;7.10;;;;;;;6.13;91.94;102271.77;105279;1275;73758;-84
2022/10/10 05:05:51;;;;;;;15.10;8.10;;;;;;;6.15;92.23;102271.55;105531;1274;57665;-86
2022/10/10 05:08:19;;;;;;;14.30;7.60;;;;;;;6.17;92.37;102280.13;105435;1263;60466;-87
2022/10/10 05:10:47;;;;;;;12.30;7.10;;;;;;;6.22;92.15;102283.46;105239;1272;63407;-87
2022/10/10 05:13:16;;;;;;;12.70;7.50;;;;;;;6.27;91.77;102284.52;105559;1266;60912;-84
2022/10/10 05:15:43;;;;;;;13.70;7.90;;;;;;;6.31;91.56;102289.08;105674;1266;59889;-84
2022/10/10 05:18:11;;;;;;;15.90;7.90;;;;;;;6.38;91.42;102293.52;105728;1263;74831;-85
2022/10/10 05:20:38;;;;;;;12.80;7.70;;;;;;;6.49;91.16;102296.86;105786;1259;61839;-88
2022/10/10 05:23:05;;;;;;;12.60;7.80;;;;;;;6.53;90.93;102302.10;105749;1266;58970;-85
2022/10/10 05:25:32;;;;;;;14.40;8.80;;;;;;;6.57;90.62;102300.21;105610;1266;73398;-86
2022/10/10 05:27:59;;;;;;;12.40;7.50;;;;;;;6.65;90.49;102303.27;106148;1265;72089;-83
2022/10/10 05:30:27;;;;;;;11.20;6.40;;;;;;;6.73;90.26;102303.89;106381;1262;70144;-86
2022/10/10 05:32:54;;;;;;;16.70;7.90;;;;;;;6.81;90.14;102300.36;105652;1267;62773;-83
2022/10/10 05:35:22;;;;;;;12.80;8.10;;;;;;;6.91;89.82;102303.33;105612;1274;63158;-84
2022/10/10 05:37:49;;;;;;;14.90;7.40;;;;;;;6.98;89.55;102303.46;105612;1274;60821;-68
2022/10/10 05:40:17;;;;;;;14.20;7.50;;;;;;;7.04;89.39;102303.08;105338;1267;63641;-70
2022/10/10 05:42:44;;;;;;;13.70;6.90;;;;;;;7.13;89.10;102302.78;105378;1275;72381;-72
2022/10/10 05:45:12;;;;;;;10.90;6.50;;;;;;;7.22;88.70;102303.20;105312;1272;59753;-74
2022/10/10 05:47:39;;;;;;;10.20;6.80;;;;;;;7.29;88.37;102305.73;105629;1266;63377;-84
2022/10/10 05:50:22;;;;;;;12.40;7.40;;;;;;;7.38;88.16;102305.44;105553;1277;61732;-89
2022/10/10 05:52:49;;;;;;;9.80;6.50;;;;;;;7.45;87.86;102302.09;105437;1271;59197;-86
2022/10/10 05:55:17;;;;;;;9.00;4.90;;;;;;;7.57;87.32;102304.80;105699;1272;62890;-90
2022/10/10 05:57:44;;;;;;;11.40;6.80;;;;;;;7.65;86.74;102302.27;105440;1273;62594;-82
2022/10/10 06:00:12;;;;;;;9.30;5.60;;;;;;;7.72;86.71;102303.21;105458;1277;70121;-88
2022/10/10 06:02:39;;;;;;;7.40;5.10;;;;;;;7.80;86.38;102302.92;105525;1269;73987;-82
2022/10/10 06:05:08;;;;;;;13.00;6.70;;;;;;;7.89;85.93;102302.28;105490;1273;57547;-87
2022/10/10 06:07:35;;;;;;;6.40;4.90;;;;;;;7.95;85.41;102299.45;105526;1265;59272;-84
2022/10/10 06:10:23;;;;;;;10.00;5.50;;;;;;;8.03;85.07;102303.83;105552;1265;64644;-88
2022/10/10 06:12:50;;;;;;;9.50;6.10;;;;;;;8.15;84.90;102307.40;105398;1264;69721;-86
2022/10/10 06:15:17;;;;;;;9.80;6.10;;;;;;;8.22;84.52;102315.28;105524;1266;70354;-81
2022/10/10 06:17:45;;;;;;;8.10;5.60;;;;;;;8.32;84.30;102312.33;105510;1268;74629;-79
2022/10/10 06:20:12;;;;;;;9.70;5.90;;;;;;;8.42;83.67;102318.75;105487;1263;61573;-83
2022/10/10 06:22:39;;;;;;;11.00;6.00;;;;;;;8.49;83.46;102310.33;105433;1266;59083;-83
2022/10/10 06:25:07;;;;;;;11.70;6.10;;;;;;;8.60;83.36;102311.83;105258;1266;72719;-83
2022/10/10 06:27:55;;;;;;;8.00;5.70;;;;;;;8.73;82.86;102315.99;105326;1266;71166;-86
2022/10/10 06:30:23;;;;;;;11.30;5.60;;;;;;;8.78;82.01;102315.45;105468;1276;70402;-85
2022/10/10 06:32:50;;;;;;;10.80;5.70;;;;;;;8.83;82.12;102314.05;105346;1272;63070;-83
2022/10/10 06:35:23;;;;;;;;;;;;;;;8.87;81.74;102311.96;105395;1257;58985;-82
2022/10/10 06:37:50;;;;;;;9.90;5.70;;;;;;;8.98;81.46;102308.42;105216;1277;59077;-84
2022/10/10 06:40:17;;;;;;;8.30;6.00;;;;;;;9.05;81.51;102306.55;105222;1275;73390;-82
2022/10/10 06:42:45;;;;;;;12.10;5.60;;;;;;;9.14;81.29;102309.33;105494;1267;70835;-83
2022/10/10 06:45:12;;;;;;;10.00;6.30;;;;;;;9.20;80.73;102306.65;105442;1266;60228;-83
2022/10/10 06:47:40;;;;;;;7.20;4.80;;;;;;;9.24;80.82;102310.09;105344;1266;73800;-83
2022/10/10 06:50:08;;;;;;;9.30;4.30;;;;;;;9.32;80.24;102311.70;105359;1267;62798;-84
2022/10/10 06:52:35;;;;;;;9.90;5.80;;;;;;;9.39;79.77;102310.17;105405;1272;61421;-84
2022/10/10 06:55:03;;;;;;;12.30;6.20;;;;;;;9.47;79.29;102311.26;105354;1270;73112;-82
2022/10/10 06:57:30;;;;;;;6.00;3.70;;;;;;;9.50;78.98;102317.70;105288;1273;68783;-84
2022/10/10 06:59:57;;;;;;;9.10;5.60;;;;;;;9.52;78.40;102318.31;105349;1266;70398;-83
2022/10/10 07:02:26;;;;;;;8.30;5.20;;;;;;;9.57;78.78;102316.73;105488;1268;74125;-82
2022/10/10 07:04:53;;;;;;;9.50;5.00;;;;;;;9.67;78.30;102317.69;105338;1265;59103;-84
2022/10/10 07:07:21;;;;;;;10.00;5.20;;;;;;;9.73;78.49;102317.95;105350;1274;57544;-82
2022/10/10 07:09:48;;;;;;;8.40;5.30;;;;;;;9.83;78.27;102317.69;105418;1272;62594;-85
2022/10/10 07:12:15;;;;;;;8.60;5.40;;;;;;;9.95;77.68;102320.30;105339;1265;60796;-83
2022/10/10 07:14:43;;;;;;;10.00;6.00;;;;;;;10.01;77.48;102314.27;105721;1262;70550;-86
2022/10/10 07:17:10;;;;;;;8.50;5.10;;;;;;;10.11;77.37;102312.09;105509;1269;62663;-82
2022/10/10 07:19:37;;;;;;;7.20;4.80;;;;;;;10.21;76.57;102308.02;105338;1266;59083;-83
2022/10/10 07:22:04;;;;;;;10.60;6.60;;;;;;;10.28;75.95;102307.20;105414;1268;61142;-83
2022/10/10 07:24:31;;;;;;;8.10;6.30;;;;;;;10.33;75.76;102302.94;105419;1273;74239;-84
2022/10/10 07:26:59;;;;;;;11.50;5.80;;;;;;;10.40;75.93;102303.33;105402;1266;71172;-83
2022/10/10 07:29:35;;;;;;;12.00;6.40;;;;;;;10.50;75.60;102305.10;105268;1265;69863;-81
2022/10/10 07:32:02;;;;;;;9.30;5.60;;;;;;;10.62;75.35;102303.14;105277;1269;62878;-85
2022/10/10 07:34:30;;;;;;;7.10;4.80;;;;;;;10.72;74.78;102304.42;106133;1261;61910;-86
2022/10/10 07:36:58;;;;;;;9.40;4.30;;;;;;;10.79;73.84;102304.96;106664;1262;57436;-83
2022/10/10 07:39:25;;;;;;;7.00;4.20;;;;;;;10.86;73.42;102299.91;105948;1264;63881;-87
2022/10/10 07:41:52;;;;;;;6.20;4.90;;;;;;;10.93;72.76;102299.78;105520;1274;71952;-84
2022/10/10 07:44:20;;;;;;;9.00;5.90;;;;;;;10.92;72.40;102302.40;105325;1275;69392;-84
2022/10/10 07:46:47;;;;;;;7.80;4.70;;;;;;;10.97;72.50;102301.14;105518;1266;63084;-86
2022/10/10 07:49:15;;;;;;;7.90;4.70;;;;;;;11.07;72.57;102304.29;105363;1269;59051;-87
2022/10/10 07:51:42;;;;;;;8.50;5.00;;;;;;;11.15;72.38;102306.52;105552;1274;57531;-86
2022/10/10 07:54:09;;;;;;;7.60;4.80;;;;;;;11.17;72.60;102295.41;105369;1264;73424;-85
2022/10/10 07:56:37;;;;;;;9.30;5.00;;;;;;;11.31;72.29;102302.39;105430;1261;71670;-83
2022/10/10 07:59:04;;;;;;;9.20;4.90;;;;;;;11.36;71.90;102298.82;105393;1273;59514;-87
2022/10/10 08:01:31;;;;;;;8.40;4.50;;;;;;;11.40;71.61;102293.55;105386;1275;73745;-87
2022/10/10 08:03:59;;;;;;;9.80;5.10;;;;;;;11.53;70.90;102292.24;105521;1274;61571;-86
2022/10/10 08:06:26;;;;;;;9.50;5.00;;;;;;;11.52;70.75;102287.75;105518;1271;59160;-86
2022/10/10 08:08:53;;;;;;;6.60;4.60;;;;;;;11.64;71.38;102292.52;105411;1264;72471;-86
2022/10/10 08:11:21;;;;;;;6.30;4.30;;;;;;;11.70;70.60;102285.92;105363;1272;71350;-87
2022/10/10 08:13:49;;;;;;;8.40;4.60;;;;;;;11.76;70.50;102285.80;105507;1273;70321;-84
2022/10/10 08:16:19;;;;;;;7.20;4.80;;;;;;;11.83;69.87;102282.31;105504;1263;73224;-84
2022/10/10 08:18:47;;;;;;;7.70;5.00;;;;;;;11.90;70.16;102284.20;107578;1272;61426;-84
2022/10/10 08:21:15;;;;;;;8.20;4.60;;;;;;;12.01;69.92;102285.71;107420;1268;57653;-86
2022/10/10 08:23:43;;;;;;;6.60;4.10;;;;;;;12.12;69.70;102277.61;107514;1257;73371;-85
2022/10/10 08:26:13;;;;;;;8.50;4.70;;;;;;;12.20;69.36;102274.77;107765;1257;62862;-84
2022/10/10 08:28:41;;;;;;;6.80;4.20;;;;;;;12.35;68.63;102279.85;107529;1263;70429;-87
2022/10/10 08:31:20;;;;;;;7.70;5.00;;;;;;;12.42;68.67;102276.16;107583;1260;74808;-84
2022/10/10 08:33:50;;;;;;;9.10;4.20;;;;;;;12.52;68.00;102275.80;107429;1272;59697;-84
2022/10/10 08:36:22;;;;;;;8.40;5.70;;;;;;;12.57;67.71;102274.99;107554;1272;57756;-84
2022/10/10 08:38:52;;;;;;;7.30;4.50;;;;;;;12.71;67.01;102275.92;107500;1267;73571;-93
2022/10/10 08:41:31;;;;;;;8.40;4.40;;;;;;;12.66;65.84;102278.29;107717;1258;61938;-85
2022/10/10 08:44:13;;;;;;;7.20;4.40;;;;;;;12.76;66.47;102276.54;107545;1266;60169;-86
2022/10/10 08:46:48;;;;;;;8.10;4.10;;;;;;;12.88;65.81;102276.39;107484;1268;63276;-87
2022/10/10 08:49:39;;;;;;;6.00;3.70;;;;;;;12.97;65.81;102276.72;107581;1266;57669;-87
2022/10/10 08:52:19;;;;;;;6.30;4.00;;;;;;;13.03;65.44;102276.36;107535;1273;60340;-82
2022/10/10 08:54:48;;;;;;;8.30;4.30;;;;;;;13.08;64.87;102274.51;107517;1263;62123;-87
2022/10/10 08:57:34;;;;;;;7.90;4.10;;;;;;;13.16;64.12;102271.60;107715;1268;62653;-88
2022/10/10 09:00:11;;;;;;;8.10;3.60;;;;;;;13.25;64.19;102263.77;107536;1263;70265;-88
2022/10/10 09:02:48;;;;;;;6.50;4.50;;;;;;;13.29;63.32;102269.81;107468;1263;64822;-88
2022/10/10 09:05:57;;;;;;;6.30;3.70;;;;;;;13.34;62.42;102267.74;107512;1263;57105;-86
2022/10/10 09:08:38;;;;;;;8.50;4.50;;;;;;;13.36;62.21;102266.09;107604;1262;60824;-86
2022/10/10 09:12:07;;;;;;;9.30;3.90;;;;;;;13.45;61.61;102266.55;107366;1268;62885;-91
2022/10/10 09:14:57;;;;;;;5.20;3.00;;;;;;;13.51;61.97;102252.60;107135;1261;72565;-87
2022/10/10 09:17:56;;;;;;;9.20;2.70;;;;;;;13.62;61.51;102252.25;107441;1266;69612;-88
2022/10/10 09:20:41;;;;;;;5.50;2.80;;;;;;;13.82;60.88;102250.70;107537;1263;72382;-88
2022/10/10 09:23:27;;;;;;;6.30;3.40;;;;;;;13.93;60.04;102243.87;107598;1272;57117;-91
2022/10/10 09:26:12;;;;;;;4.50;2.10;;;;;;;13.92;58.04;102247.26;107365;1263;60933;-87
2022/10/10 09:28:59;;;;;;;5.20;2.50;;;;;;;14.02;58.05;102239.08;107370;1266;62238;-90
2022/10/10 09:31:41;;;;;;;3.20;1.80;;;;;;;14.12;58.26;102240.39;107689;1261;72257;-89
2022/10/10 09:34:24;;;;;;;4.70;1.80;;;;;;;14.25;56.99;102238.69;107445;1269;61633;-91
2022/10/10 09:36:51;;;;;;;;;;;;;;;14.45;56.87;102239.52;107453;1263;73678;-90
2022/10/10 09:39:47;;;;;;;4.00;1.70;;;;;;;14.48;55.22;102241.42;107393;1266;60754;-90
2022/10/10 09:42:19;;;;;;;7.40;1.90;;;;;;;14.49;54.31;102238.58;107388;1263;61047;-87
2022/10/10 09:44:46;;;;;;;1.80;1.20;;;;;;;14.53;54.60;102236.39;107456;1262;73879;-88
2022/10/10 09:47:16;;;;;;;4.40;1.10;;;;;;;14.68;52.90;102238.37;107613;1260;71326;-86
2022/10/10 09:49:44;;;;;;;4.10;1.50;;;;;;;14.62;52.38;102235.13;107622;1265;60231;-90
2022/10/10 09:52:37;;;;;;;3.00;1.30;;;;;;;14.61;53.08;102225.74;107691;1266;62355;-88
2022/10/10 09:55:17;;;;;;;4.80;1.30;;;;;;;14.61;52.74;102224.67;107855;1258;57008;-89
2022/10/10 09:57:45;;;;;;;1.90;1.00;;;;;;;14.51;52.36;102223.18;107678;1266;57206;-84
2022/10/10 10:00:31;;;;;;;4.50;1.20;;;;;;;14.62;52.12;102223.06;107756;1266;62101;-86
2022/10/10 10:03:07;;;;;;;4.10;1.40;;;;;;;14.86;51.65;102216.86;107585;1261;71171;-85
2022/10/10 10:05:35;;;;;;;4.00;1.60;;;;;;;14.97;51.51;102216.65;107508;1262;70840;-87
2022/10/10 10:08:02;;;;;;;4.60;1.60;;;;;;;15.09;51.24;102210.58;107385;1269;63432;-90
2022/10/10 10:10:34;;;;;;;4.50;1.30;;;;;;;15.26;50.95;102210.13;107442;1266;60374;-86
2022/10/10 10:13:01;;;;;;;5.10;2.30;;;;;;;15.55;51.30;102207.05;107222;1268;264541;-87
2022/10/10 10:15:31;;;;;;;8.40;3.90;;;;;;;15.55;50.75;102198.85;107325;1271;63758;-88
2022/10/10 10:18:21;;;;;;;9.50;4.20;;;;;;;15.53;50.89;102197.76;107527;1264;72069;-88
2022/10/10 10:21:01;;;;;;;5.30;2.60;;;;;;;15.79;50.82;102196.98;107405;1272;60625;-88
2022/10/10 10:23:39;;;;;;;4.80;2.00;;;;;;;15.76;50.00;102196.30;107220;1265;62570;-89
2022/10/10 10:26:37;;;;;;;7.00;2.80;;;;;;;15.88;49.90;102190.20;107284;1267;57709;-89
2022/10/10 10:29:34;;;;;;;4.50;2.00;;;;;;;16.25;49.78;102182.23;107268;1272;61246;-88
2022/10/10 10:32:38;;;;;;;4.40;2.10;;;;;;;16.39;48.70;102183.88;107330;1269;73066;-90
2022/10/10 10:35:14;;;;;;;11.60;5.80;;;;;;;16.28;49.05;102175.15;107339;1264;71196;-89
2022/10/10 10:37:59;;;;;;;9.10;4.80;;;;;;;16.32;47.64;102180.83;107328;1257;60259;-88
2022/10/10 10:40:52;;;;;;;4.50;2.30;;;;;;;16.63;46.26;102171.71;107424;1263;72889;-87
2022/10/10 10:43:47;;;;;;;5.60;1.80;;;;;;;16.67;45.91;102166.10;107357;1266;60145;-90
2022/10/10 10:46:57;;;;;;;3.20;1.50;;;;;;;17.26;45.61;102170.63;107386;1265;57310;-90
2022/10/10 10:49:52;;;;;;;4.10;1.50;;;;;;;17.48;43.49;102170.33;107472;1272;62950;-86
2022/10/10 10:53:10;;;;;;;3.50;1.80;;;;;;;17.39;42.67;102170.80;107813;1258;60820;-87
2022/10/10 10:56:25;;;;;;;3.20;1.30;;;;;;;17.16;43.43;102164.89;107677;1260;70465;-85
2022/10/10 10:59:50;;;;;;;3.70;1.40;;;;;;;17.26;43.73;102161.25;107597;1263;63600;-88
2022/10/10 11:03:21;;;;;;;3.10;1.40;;;;;;;17.04;43.38;102164.34;107325;1265;60634;-90
2022/10/10 11:06:39;;;;;;;5.00;1.50;;;;;;;16.94;44.24;102160.59;107286;1275;60882;-81
2022/10/10 11:09:40;;;;;;;3.30;1.30;;;;;;;17.04;43.73;102149.58;107533;1262;63347;-81
2022/10/10 11:12:53;;;;;;;3.30;1.40;;;;;;;17.64;43.08;102150.50;107618;1256;61546;-79
2022/10/10 11:15:44;;;;;;;3.00;1.70;;;;;;;17.72;41.53;102147.96;107481;1262;70397;-82
2022/10/10 11:18:42;;;;;;;2.50;1.40;;;;;;;17.83;41.80;102142.73;107362;1272;62639;-78
2022/10/10 11:21:26;;;;;;;4.50;1.70;;;;;;;18.10;40.98;102138.77;107370;1266;60646;-82
2022/10/10 11:24:08;;;;;;;11.70;7.00;;;;;;;17.79;41.24;102136.12;107452;1263;61136;-84
2022/10/10 11:26:43;;;;;;;8.10;5.00;;;;;;;17.29;42.08;102134.81;107404;1266;62659;-84
2022/10/10 11:29:14;;;;;;;5.90;2.10;;;;;;;16.83;42.76;102132.18;107528;1265;61654;-84
2022/10/10 11:32:12;;;;;;;4.80;2.00;;;;;;;16.33;43.35;102132.40;107430;1269;69721;-82
2022/10/10 11:35:03;;;;;;;4.60;2.70;;;;;;;16.21;43.49;102126.12;107446;1269;63120;-83
2022/10/10 11:37:36;;;;;;;3.90;1.90;;;;;;;16.77;43.04;102121.06;107373;1268;59678;-73
2022/10/10 11:40:05;;;;;;;6.70;1.90;;;;;;;17.44;42.77;102115.50;107537;1262;61620;-74
2022/10/10 11:42:48;;;;;;;5.20;2.60;;;;;;;17.64;41.58;102114.94;107593;1272;62515;-73
2022/10/10 11:45:36;;;;;;;;;;;;;;;17.38;41.47;102119.61;107637;1264;70599;-73
2022/10/10 11:48:24;;;;;;;4.50;1.50;;;;;;;17.59;41.60;102119.95;107503;1263;69989;-79
2022/10/10 11:51:03;;;;;;;4.00;1.70;;;;;;;17.85;40.65;102119.65;107546;1259;73533;-74
2022/10/10 11:53:42;;;;;;;3.80;1.60;;;;;;;18.09;38.54;102112.89;107482;1276;57168;-72